Time;durP1;ratioP1;P1;durP2;ratioP2;P2;SDS_P1;SDS_P2;PMS_P1;PMS_P2;Temp;Humidity;BMP_temperature;BMP_pressure;BME280_temperature;BME280_humidity;BME280_pressure;Samples;Min_cycle;Max_cycle;Signal;HPM_P1;HPM_P2
2024/01/12 00:00:06;;;;;;;45.73;23.00;;;;;;;3.92;60.96;98975.38;1759058;81;21358;-84
2024/01/12 00:03:13;;;;;;;47.20;24.32;;;;;;;4.03;60.63;98975.04;1781258;80;21311;-84
2024/01/12 00:06:20;;;;;;;44.30;23.55;;;;;;;4.19;60.18;98982.35;1780718;80;21319;-83
2024/01/12 00:09:27;;;;;;;45.00;22.80;;;;;;;4.17;60.13;98977.59;1782641;80;21298;-84
2024/01/12 00:12:34;;;;;;;42.23;23.27;;;;;;;4.12;60.49;98979.96;1790440;80;21358;-82
2024/01/12 00:15:41;;;;;;;49.83;24.75;;;;;;;4.06;60.74;98983.34;1784778;80;21357;-82
2024/01/12 00:18:48;;;;;;;43.52;21.85;;;;;;;4.13;60.50;98970.82;1790950;80;21188;-82
2024/01/12 00:21:55;;;;;;;38.75;20.37;;;;;;;3.95;60.64;98973.70;1791293;80;21278;-83
2024/01/12 00:25:00;;;;;;;53.00;26.07;;;;;;;4.13;60.49;98978.94;1790766;80;21897;-84
2024/01/12 00:28:08;;;;;;;44.77;24.92;;;;;;;4.01;60.78;98972.17;1792111;80;21335;-82
2024/01/12 00:31:15;;;;;;;43.35;23.95;;;;;;;3.78;61.86;98986.33;1783743;80;21883;-84
2024/01/12 00:34:22;;;;;;;45.60;23.95;;;;;;;3.74;62.26;98980.91;1816908;79;21284;-85
2024/01/12 00:37:28;;;;;;;47.70;24.75;;;;;;;3.69;62.60;98985.96;1785185;80;21327;-85
2024/01/12 00:40:35;;;;;;;48.92;25.65;;;;;;;3.81;62.13;98979.25;1816061;79;21864;-85
2024/01/12 00:43:42;;;;;;;46.92;24.98;;;;;;;3.89;61.99;98982.45;1784788;80;21307;-84
2024/01/12 00:46:52;;;;;;;54.42;25.43;;;;;;;3.98;62.32;98980.62;1817268;79;21282;-83
2024/01/12 00:49:57;;;;;;;46.40;24.27;;;;;;;4.13;61.93;98972.17;1784498;80;21938;-85
2024/01/12 00:53:04;;;;;;;50.78;25.08;;;;;;;4.29;61.65;98980.83;1816245;79;21303;-85
2024/01/12 00:56:13;;;;;;;49.48;25.75;;;;;;;4.29;61.08;98972.71;1785123;80;21271;-82
2024/01/12 00:59:19;;;;;;;46.73;23.65;;;;;;;3.94;61.95;98981.95;1817094;79;21208;-82
2024/01/12 01:02:25;;;;;;;42.03;22.20;;;;;;;4.03;61.91;98969.63;1784730;80;21832;-82
2024/01/12 01:05:25;;;;;;;51.92;25.60;;;;;;;3.96;61.86;98980.80;1816206;79;21303;-83
2024/01/12 01:08:32;;;;;;;48.50;25.62;;;;;;;4.18;61.65;98977.92;1785155;80;21287;-83
2024/01/12 01:11:38;;;;;;;46.63;25.30;;;;;;;3.65;62.96;98975.64;1812717;78;21288;-83
2024/01/12 01:14:44;;;;;;;48.68;24.18;;;;;;;4.18;61.63;98983.34;1736677;82;21156;-85
2024/01/12 01:17:51;;;;;;;53.70;26.23;;;;;;;4.25;61.67;98982.17;1766486;81;21295;-83
2024/01/12 01:20:59;;;;;;;44.88;23.98;;;;;;;4.00;62.45;98975.88;1765116;81;21992;-83
2024/01/12 01:24:06;;;;;;;46.83;26.30;;;;;;;4.05;62.70;98975.73;1765411;81;21887;-84
2024/01/12 01:27:14;;;;;;;45.63;25.25;;;;;;;3.72;63.57;98986.16;1764996;81;21180;-83
2024/01/12 01:30:22;;;;;;;45.03;25.17;;;;;;;3.50;64.12;98984.89;1765511;81;21271;-82
2024/01/12 01:33:29;;;;;;;50.05;25.60;;;;;;;3.56;64.47;98997.74;1764969;81;21302;-83
2024/01/12 01:36:35;;;;;;;45.35;25.05;;;;;;;3.65;63.99;98992.70;1765821;81;21310;-82
2024/01/12 01:39:41;;;;;;;45.05;23.32;;;;;;;3.92;63.10;98998.88;1766587;81;21848;-83
2024/01/12 01:42:48;;;;;;;43.28;22.82;;;;;;;4.01;62.64;99000.08;1766512;81;21837;-82
2024/01/12 01:45:54;;;;;;;44.73;23.07;;;;;;;4.36;60.81;99008.91;1766456;81;21781;-83
2024/01/12 01:49:00;;;;;;;45.85;24.87;;;;;;;4.34;60.85;99019.91;1765696;81;21295;-84
2024/01/12 01:52:07;;;;;;;42.27;22.50;;;;;;;4.26;59.97;99009.58;1766253;81;21844;-84
2024/01/12 01:55:15;;;;;;;47.03;24.52;;;;;;;4.13;60.46;99012.77;1765568;81;21322;-84
2024/01/12 01:58:21;;;;;;;44.98;23.65;;;;;;;4.01;60.46;99024.94;1766564;81;21286;-85
2024/01/12 02:01:28;;;;;;;39.92;22.22;;;;;;;4.20;59.81;99028.70;1743804;81;21843;-85
2024/01/12 02:04:35;;;;;;;30.82;16.75;;;;;;;3.90;59.95;99039.59;1766015;81;21298;-82
2024/01/12 02:07:45;;;;;;;13.90;6.78;;;;;;;3.91;58.88;99044.02;1766514;81;21824;-84
2024/01/12 02:10:52;;;;;;;20.50;8.30;;;;;;;3.84;56.70;99044.33;1764938;81;21303;-83
2024/01/12 02:13:58;;;;;;;12.88;5.95;;;;;;;3.72;55.53;99054.61;1777310;80;21284;-83
2024/01/12 02:17:05;;;;;;;9.43;5.42;;;;;;;3.70;54.84;99055.77;1779830;80;21165;-84
2024/01/12 02:20:12;;;;;;;37.53;11.68;;;;;;;3.22;55.62;99052.66;1779553;80;21309;-83
2024/01/12 02:23:19;;;;;;;20.23;5.95;;;;;;;3.10;55.95;99052.58;1779146;80;21887;-84
2024/01/12 02:26:26;;;;;;;12.55;5.80;;;;;;;3.01;56.29;99065.69;1778360;80;21528;-83
2024/01/12 02:29:32;;;;;;;13.75;6.62;;;;;;;2.93;56.75;99077.80;1755688;80;21306;-84
2024/01/12 02:32:40;;;;;;;49.23;11.83;;;;;;;3.12;56.46;99080.30;1772588;81;21323;-82
2024/01/12 02:35:47;;;;;;;25.57;9.93;;;;;;;3.11;56.63;99081.31;1756794;81;21261;-84
2024/01/12 02:38:58;;;;;;;24.18;7.87;;;;;;;3.43;55.94;99089.26;1757417;81;21277;-84
2024/01/12 02:41:59;;;;;;;32.33;8.88;;;;;;;3.04;56.59;99086.99;1757132;81;21271;-83
2024/01/12 02:44:52;;;;;;;26.30;9.58;;;;;;;3.34;56.12;99092.45;1755928;81;21770;-83
2024/01/12 02:47:59;;;;;;;;;;;;;;;3.29;55.62;99089.34;1759672;81;21831;-83
2024/01/12 02:51:05;;;;;;;22.02;6.78;;;;;;;3.13;54.56;99109.02;1772970;81;20277;-84
2024/01/12 02:54:11;;;;;;;23.92;6.72;;;;;;;3.32;52.56;99122.82;1756276;80;21294;-83
2024/01/12 02:57:18;;;;;;;13.03;5.12;;;;;;;3.30;52.25;99118.94;1773837;81;21841;-84
2024/01/12 03:00:24;;;;;;;8.80;3.95;;;;;;;2.94;52.23;99147.87;1756034;80;21842;-83
2024/01/12 03:03:32;;;;;;;9.13;3.12;;;;;;;2.89;52.91;99152.89;1772620;81;21224;-84
2024/01/12 03:06:39;;;;;;;16.87;4.12;;;;;;;2.75;53.43;99143.48;1756166;81;21290;-84
2024/01/12 03:09:47;;;;;;;4.87;2.20;;;;;;;2.62;53.90;99149.77;1773385;81;21323;-84
2024/01/12 03:12:55;;;;;;;3.58;1.72;;;;;;;2.76;52.33;99145.17;1758523;80;21326;-84
2024/01/12 03:16:06;;;;;;;7.25;2.72;;;;;;;2.75;51.05;99159.69;1817752;79;21164;-85
2024/01/12 03:19:11;;;;;;;21.00;9.78;;;;;;;2.55;51.01;99172.49;1784664;80;21298;-84
2024/01/12 03:22:18;;;;;;;4.85;1.60;;;;;;;2.49;50.16;99168.19;1807658;79;21270;-84
2024/01/12 03:25:25;;;;;;;5.30;1.80;;;;;;;2.30;48.30;99188.89;1753904;82;21315;-84
2024/01/12 03:28:30;;;;;;;5.53;2.37;;;;;;;2.11;48.24;99203.84;1755548;82;21333;-84
2024/01/12 03:31:30;;;;;;;4.53;1.87;;;;;;;2.03;48.32;99205.11;1755663;82;21188;-83
2024/01/12 03:34:24;;;;;;;3.47;2.10;;;;;;;1.77;46.78;99216.54;1754817;82;21349;-83
2024/01/12 03:37:31;;;;;;;10.68;2.25;;;;;;;1.70;46.31;99237.02;1755486;82;21580;-84
2024/01/12 03:40:37;;;;;;;4.37;2.12;;;;;;;1.55;46.07;99223.62;1754611;82;21307;-84
2024/01/12 03:43:44;;;;;;;4.92;2.17;;;;;;;1.38;45.92;99241.39;1753987;82;21291;-84
2024/01/12 03:46:51;;;;;;;5.40;2.15;;;;;;;1.09;45.93;99255.39;1742772;82;21884;-83
2024/01/12 03:49:57;;;;;;;4.90;2.30;;;;;;;0.95;45.65;99257.50;1736722;82;21351;-84
2024/01/12 03:53:03;;;;;;;6.10;3.60;;;;;;;0.86;45.51;99270.46;1737607;82;21165;-85
2024/01/12 03:56:09;;;;;;;4.90;3.02;;;;;;;0.52;46.02;99282.09;1737599;82;21560;-85
2024/01/12 03:59:15;;;;;;;6.05;3.08;;;;;;;0.39;45.98;99288.20;1737510;82;21256;-85
2024/01/12 04:02:21;;;;;;;7.37;2.72;;;;;;;0.34;46.22;99294.48;1749090;82;21295;-85
2024/01/12 04:05:28;;;;;;;6.72;3.10;;;;;;;0.27;46.25;99313.48;1708684;82;21927;-83
2024/01/12 04:08:35;;;;;;;6.58;2.80;;;;;;;0.08;46.59;99327.69;1748726;82;21287;-83
2024/01/12 04:11:42;;;;;;;7.20;3.33;;;;;;;0.22;46.60;99340.28;1748415;82;21330;-83
2024/01/12 04:14:52;;;;;;;8.50;3.27;;;;;;;0.18;46.37;99354.98;1748604;81;21895;-83
2024/01/12 04:18:00;;;;;;;5.47;3.22;;;;;;;0.03;46.17;99363.54;1732564;82;21315;-85
2024/01/12 04:21:06;;;;;;;5.50;2.90;;;;;;;-0.08;45.76;99356.41;1751873;82;21314;-85
2024/01/12 04:24:12;;;;;;;5.85;2.85;;;;;;;-0.29;45.61;99354.55;1750271;82;21354;-85
2024/01/12 04:27:18;;;;;;;7.70;2.75;;;;;;;-0.26;45.32;99371.77;1751846;82;21271;-84
2024/01/12 04:30:25;;;;;;;5.12;2.90;;;;;;;-0.72;45.56;99363.19;1750851;82;21370;-83
2024/01/12 04:33:33;;;;;;;6.80;3.02;;;;;;;-0.56;45.50;99373.88;1751624;82;21331;-84
2024/01/12 04:36:40;;;;;;;7.22;3.27;;;;;;;-0.64;45.38;99386.23;1751669;82;21322;-82
2024/01/12 04:39:49;;;;;;;4.92;2.70;;;;;;;-0.63;44.85;99382.08;1750541;82;21780;-85
2024/01/12 04:42:56;;;;;;;9.80;3.15;;;;;;;-0.66;44.89;99407.86;1752069;82;21271;-85
2024/01/12 04:46:01;;;;;;;9.75;2.30;;;;;;;-0.60;44.46;99423.95;1754066;80;21295;-85
2024/01/12 04:49:09;;;;;;;4.97;3.45;;;;;;;-0.72;44.59;99436.55;1767686;80;21382;-86
2024/01/12 04:52:16;;;;;;;6.87;3.20;;;;;;;-0.69;44.41;99426.06;1757279;80;21316;-85
2024/01/12 04:55:23;;;;;;;7.03;3.33;;;;;;;-0.93;44.96;99435.14;1751022;82;21328;-85
2024/01/12 04:58:29;;;;;;;5.42;3.02;;;;;;;-0.82;44.70;99443.16;1751679;82;21297;-82
2024/01/12 05:01:36;;;;;;;4.10;2.67;;;;;;;-0.83;44.43;99455.38;1782168;80;21157;-86
2024/01/12 05:04:42;;;;;;;5.15;2.62;;;;;;;-0.92;44.53;99460.16;1782073;80;21795;-85
2024/01/12 05:07:49;;;;;;;5.45;3.25;;;;;;;-1.05;44.40;99480.41;1759589;80;21342;-82
2024/01/12 05:10:57;;;;;;;6.90;3.58;;;;;;;-1.35;44.90;99473.83;1752620;80;21341;-85
2024/01/12 05:13:57;;;;;;;3.83;2.40;;;;;;;-1.23;44.59;99500.66;1777199;80;21912;-85
2024/01/12 05:17:03;;;;;;;7.50;2.80;;;;;;;-1.15;44.55;99480.78;1751117;80;21342;-84
2024/01/12 05:20:10;;;;;;;6.83;2.87;;;;;;;-1.24;44.46;99485.54;1768078;80;21291;-86
2024/01/12 05:23:16;;;;;;;8.23;2.30;;;;;;;-1.23;44.14;99523.47;1776519;80;21367;-85
2024/01/12 05:26:23;;;;;;;8.20;2.40;;;;;;;-1.92;44.59;99516.27;1761180;80;21338;-82
2024/01/12 05:29:29;;;;;;;9.93;3.02;;;;;;;-1.97;44.57;99530.50;1748455;82;21323;-86
2024/01/12 05:32:36;;;;;;;7.03;2.80;;;;;;;-2.49;44.85;99523.67;1750365;80;21287;-84
2024/01/12 05:35:43;;;;;;;8.98;2.77;;;;;;;-2.57;45.04;99546.13;1777985;80;21335;-87
2024/01/12 05:38:49;;;;;;;6.53;3.10;;;;;;;-1.90;44.54;99552.32;1778608;80;21315;-86
2024/01/12 05:41:56;;;;;;;11.25;2.90;;;;;;;-1.89;43.78;99560.72;1779771;80;21177;-87
2024/01/12 05:45:03;;;;;;;9.95;3.50;;;;;;;-2.14;43.74;99559.03;1744456;80;21309;-86
2024/01/12 05:48:10;;;;;;;6.28;2.65;;;;;;;-2.10;43.90;99562.72;1734432;79;21267;-87
2024/01/12 05:51:19;;;;;;;5.10;3.17;;;;;;;-1.93;43.25;99578.89;1743518;82;21288;-84
2024/01/12 05:54:26;;;;;;;6.53;2.83;;;;;;;-2.32;43.07;99585.35;1726157;81;21876;-87
2024/01/12 05:57:32;;;;;;;13.90;2.98;;;;;;;-2.42;43.36;99581.64;1770597;81;21351;-87
2024/01/12 06:00:39;;;;;;;7.08;3.15;;;;;;;-2.35;42.72;99585.11;1751778;81;21305;-87
2024/01/12 06:03:46;;;;;;;8.70;3.50;;;;;;;-2.37;42.91;99592.88;1745746;81;21323;-83
2024/01/12 06:06:52;;;;;;;10.25;3.42;;;;;;;-2.34;42.80;99612.75;1745385;81;21344;-83
2024/01/12 06:21:34;;;;;;;17.48;5.20;;;;;;;-1.50;41.06;99622.57;1804565;79;28368;-80
2024/01/12 06:24:41;;;;;;;15.03;5.83;;;;;;;-1.51;41.13;99625.34;1786031;79;21853;-79
2024/01/12 06:27:48;;;;;;;12.73;5.25;;;;;;;-1.31;41.13;99624.22;1787096;79;21291;-80
2024/01/12 06:30:56;;;;;;;17.23;6.87;;;;;;;-1.36;41.05;99641.16;1756558;80;21385;-80
2024/01/12 06:34:03;;;;;;;15.05;5.05;;;;;;;-1.54;41.54;99641.20;1771669;80;21318;-79
2024/01/12 06:37:09;;;;;;;19.65;5.87;;;;;;;-1.63;41.61;99637.88;1773489;80;21319;-79
2024/01/12 06:40:15;;;;;;;17.95;5.65;;;;;;;-1.86;42.15;99654.33;1740498;80;21311;-79
2024/01/12 06:43:24;;;;;;;12.75;6.60;;;;;;;-1.97;42.46;99658.30;1780764;80;21296;-79
2024/01/12 06:46:31;;;;;;;14.00;6.05;;;;;;;-1.91;42.13;99660.03;1787070;80;21342;-80
2024/01/12 06:49:38;;;;;;;14.07;6.55;;;;;;;-1.68;41.83;99660.16;1790111;80;21326;-79
2024/01/12 06:52:43;;;;;;;17.57;7.75;;;;;;;-1.66;41.79;99667.59;1770485;80;21645;-79
2024/01/12 06:55:48;;;;;;;39.40;13.50;;;;;;;-1.73;42.07;99682.44;1776865;80;21280;-79
2024/01/12 06:58:54;;;;;;;25.77;10.70;;;;;;;-1.62;41.89;99691.88;1762666;81;21292;-79
2024/01/12 07:02:00;;;;;;;17.77;8.85;;;;;;;-1.53;41.85;99695.70;1778810;80;21423;-78
2024/01/12 07:05:06;;;;;;;15.65;8.35;;;;;;;-1.46;41.89;99688.40;1774528;80;21326;-79
2024/01/12 07:08:11;;;;;;;15.93;8.30;;;;;;;-1.42;41.83;99703.79;1772298;80;21282;-79
2024/01/12 07:11:19;;;;;;;13.22;6.42;;;;;;;-1.58;41.74;99705.43;1760539;80;22329;-79
2024/01/12 07:14:26;;;;;;;15.45;8.03;;;;;;;-1.43;41.61;99712.33;1755893;80;21327;-79
2024/01/12 07:17:33;;;;;;;17.40;8.73;;;;;;;-1.35;41.56;99711.77;1755588;80;21323;-81
2024/01/12 07:20:40;;;;;;;15.85;6.60;;;;;;;-1.53;41.99;99718.50;1754269;81;21373;-81
2024/01/12 07:23:46;;;;;;;13.68;5.87;;;;;;;-1.32;41.56;99724.92;1745016;81;21310;-79
2024/01/12 07:26:53;;;;;;;16.62;8.15;;;;;;;-1.30;41.62;99714.95;1721987;83;21309;-79
2024/01/12 07:29:59;;;;;;;17.12;6.75;;;;;;;-1.39;41.82;99732.59;1746611;80;21331;-80
2024/01/12 07:33:06;;;;;;;15.08;5.80;;;;;;;-1.48;42.24;99728.41;1725749;81;21286;-79
2024/01/12 07:36:14;;;;;;;20.48;8.05;;;;;;;-1.43;42.33;99729.77;1751806;80;21318;-79
2024/01/12 07:39:21;;;;;;;8.80;4.90;;;;;;;-1.22;42.12;99731.80;1747780;80;21285;-80
2024/01/12 07:42:27;;;;;;;10.95;4.80;;;;;;;-1.18;41.82;99731.94;1737356;81;21303;-79
2024/01/12 07:45:34;;;;;;;12.47;6.22;;;;;;;-1.15;41.56;99742.45;1742849;80;21347;-80
2024/01/12 07:48:41;;;;;;;10.98;5.53;;;;;;;-1.11;41.36;99743.94;1744663;80;21533;-79
2024/01/12 07:51:49;;;;;;;9.83;5.40;;;;;;;-1.21;41.41;99749.15;1751436;80;21290;-79
2024/01/12 07:54:57;;;;;;;9.10;4.65;;;;;;;-1.20;41.14;99761.59;1749971;80;21632;-79
2024/01/12 07:58:04;;;;;;;14.80;6.47;;;;;;;-1.20;41.04;99765.61;1755840;80;21318;-78
2024/01/12 08:01:10;;;;;;;18.85;8.28;;;;;;;-1.23;40.91;99758.27;1707831;82;21352;-78
2024/01/12 08:04:15;;;;;;;11.75;6.10;;;;;;;-1.09;41.08;99768.34;1750914;80;21318;-79
2024/01/12 08:07:21;;;;;;;12.65;6.70;;;;;;;-1.38;41.43;99789.30;1709848;82;21326;-78
2024/01/12 08:10:29;;;;;;;19.82;7.00;;;;;;;-1.12;41.36;99781.16;1753246;80;21905;-79
2024/01/12 08:13:36;;;;;;;8.83;5.10;;;;;;;-1.08;41.33;99793.38;1718508;81;21347;-78
2024/01/12 08:16:41;;;;;;;10.30;5.72;;;;;;;-0.88;41.13;99794.06;1754442;81;21296;-78
2024/01/12 08:19:50;;;;;;;9.78;5.40;;;;;;;-0.90;40.58;99797.83;1750303;80;21295;-79
2024/01/12 08:22:57;;;;;;;10.68;5.12;;;;;;;-1.01;40.70;99788.39;1751910;80;21325;-79
2024/01/12 08:26:13;;;;;;;9.98;5.90;;;;;;;-0.78;40.31;99795.08;1741157;80;21880;-79
2024/01/12 08:29:37;;;;;;;13.85;6.37;;;;;;;-0.90;40.13;99798.68;1731818;81;21689;-79
2024/01/12 08:32:44;;;;;;;10.18;4.72;;;;;;;-0.96;39.98;99803.18;1762649;80;22589;-79
2024/01/12 08:35:54;;;;;;;12.58;6.60;;;;;;;-1.04;40.03;99806.42;1738344;81;21314;-79
2024/01/12 08:39:01;;;;;;;12.70;7.08;;;;;;;-1.05;40.65;99798.50;1747820;81;21324;-79
2024/01/12 08:42:11;;;;;;;8.73;5.60;;;;;;;-1.00;40.91;99800.34;1748795;80;21296;-84
2024/01/12 08:45:17;;;;;;;13.88;5.72;;;;;;;-1.13;41.60;99796.41;1759640;81;21286;-79
2024/01/12 08:48:23;;;;;;;14.73;5.50;;;;;;;-1.02;41.08;99807.67;1758355;81;21316;-79
2024/01/12 08:51:30;;;;;;;10.08;4.80;;;;;;;-1.16;41.34;99797.11;1751128;80;21929;-79
2024/01/12 08:54:37;;;;;;;10.60;5.47;;;;;;;-1.18;41.06;99808.43;1767398;80;21300;-80
2024/01/12 08:57:42;;;;;;;8.50;5.22;;;;;;;-1.21;40.97;99813.55;1747526;81;22493;-79
2024/01/12 09:00:48;;;;;;;10.85;5.05;;;;;;;-1.05;40.79;99806.55;1765674;80;21277;-79
2024/01/12 09:03:55;;;;;;;11.03;6.90;;;;;;;-0.98;40.78;99803.80;1750565;80;21310;-79
2024/01/12 09:07:02;;;;;;;10.58;5.92;;;;;;;-0.94;40.41;99807.97;1746544;80;21358;-79
2024/01/12 09:10:09;;;;;;;15.60;5.62;;;;;;;-0.88;40.65;99806.64;1757934;81;21302;-79
2024/01/12 09:13:15;;;;;;;11.75;5.17;;;;;;;-1.03;40.77;99805.97;1747054;81;21356;-79
2024/01/12 09:16:20;;;;;;;13.10;5.55;;;;;;;-1.25;41.30;99819.27;1758292;80;21306;-79
2024/01/12 09:19:27;;;;;;;9.25;4.95;;;;;;;-0.97;41.42;99811.36;1757629;80;21666;-79
2024/01/12 09:22:33;;;;;;;14.45;6.83;;;;;;;-0.89;41.34;99816.53;1742040;80;21336;-80
2024/01/12 09:25:39;;;;;;;11.70;6.55;;;;;;;-0.84;41.42;99818.87;1748597;80;21335;-81
2024/01/12 09:28:46;;;;;;;17.50;9.05;;;;;;;-1.09;41.29;99837.27;1738361;80;21277;-79
2024/01/12 09:31:53;;;;;;;12.05;6.53;;;;;;;-1.12;41.03;99831.66;1760603;80;21330;-78
2024/01/12 09:34:59;;;;;;;15.40;7.10;;;;;;;-0.96;40.82;99831.37;1746394;80;21295;-78
2024/01/12 09:38:05;;;;;;;9.80;6.60;;;;;;;-0.88;40.97;99822.75;1746260;80;22299;-79
2024/01/12 09:41:15;;;;;;;20.10;8.45;;;;;;;-0.81;40.83;99828.02;1754193;80;21345;-79
2024/01/12 09:44:27;;;;;;;15.60;8.43;;;;;;;-0.98;40.39;99826.61;1753133;80;21539;-78
2024/01/12 09:47:35;;;;;;;13.88;7.62;;;;;;;-1.04;40.48;99835.10;1756229;81;21361;-79
2024/01/12 09:50:42;;;;;;;21.23;10.88;;;;;;;-0.98;40.85;99841.37;1753839;80;21611;-78
2024/01/12 09:53:48;;;;;;;25.43;11.28;;;;;;;-0.81;40.68;99842.30;1751544;80;21301;-79
2024/01/12 09:56:56;;;;;;;13.38;7.17;;;;;;;-0.98;40.55;99834.67;1754781;80;21298;-79
2024/01/12 10:00:02;;;;;;;29.40;13.30;;;;;;;-0.99;40.44;99842.33;1752758;80;21290;-80
2024/01/12 10:03:09;;;;;;;20.40;8.90;;;;;;;-0.93;40.19;99845.92;1776246;80;21195;-79
2024/01/12 10:06:15;;;;;;;13.32;8.25;;;;;;;-1.13;40.45;99850.55;1751391;80;21916;-80
2024/01/12 10:09:24;;;;;;;12.65;7.37;;;;;;;-1.05;40.77;99858.89;1738826;80;21796;-80
2024/01/12 10:12:31;;;;;;;38.38;11.25;;;;;;;-0.91;40.23;99852.02;1781457;80;21345;-77
2024/01/12 10:15:36;;;;;;;38.05;11.03;;;;;;;-1.06;39.95;99847.80;1750870;80;21314;-78
2024/01/12 10:18:42;;;;;;;20.57;9.15;;;;;;;-1.28;40.22;99859.24;1761070;80;22636;-78
2024/01/12 10:21:49;;;;;;;26.35;11.70;;;;;;;-1.25;40.43;99859.52;1745169;80;21314;-78
2024/01/12 10:25:11;;;;;;;16.37;6.28;;;;;;;-1.24;40.51;99865.25;1749766;80;21361;-77
2024/01/12 10:28:17;;;;;;;26.35;9.20;;;;;;;-1.02;40.28;99876.12;1732577;80;21338;-78
2024/01/12 10:31:24;;;;;;;7.30;3.70;;;;;;;-1.23;40.72;99870.98;1741397;80;21525;-79
2024/01/12 10:34:33;;;;;;;6.83;4.17;;;;;;;-1.01;40.50;99879.18;1737150;81;21968;-78
2024/01/12 10:37:39;;;;;;;17.77;6.42;;;;;;;-1.11;40.64;99876.32;1742442;80;21290;-77
2024/01/12 10:40:45;;;;;;;23.87;8.45;;;;;;;-1.16;40.74;99877.63;1757435;80;21368;-78
2024/01/12 10:43:51;;;;;;;7.20;4.05;;;;;;;-1.06;40.50;99884.89;1754971;80;21886;-78
2024/01/12 10:46:58;;;;;;;10.60;5.92;;;;;;;-1.24;40.28;99882.69;1743149;80;21344;-79
2024/01/12 10:50:12;;;;;;;22.35;5.87;;;;;;;-1.46;40.33;99878.87;1731833;81;21337;-78
2024/01/12 10:53:37;;;;;;;16.05;6.92;;;;;;;-1.31;40.57;99880.47;1742119;81;21334;-79
2024/01/12 10:56:42;;;;;;;7.80;4.70;;;;;;;-1.39;40.58;99882.84;1744979;80;21336;-78
2024/01/12 10:59:51;;;;;;;14.80;4.15;;;;;;;-1.30;40.31;99878.15;1733157;82;21319;-79
2024/01/12 11:02:58;;;;;;;14.40;5.08;;;;;;;-1.36;40.53;99877.27;1738835;81;21311;-79
2024/01/12 11:06:05;;;;;;;9.13;5.00;;;;;;;-1.20;40.78;99880.16;1725471;80;21283;-80
2024/01/12 11:09:17;;;;;;;14.87;5.97;;;;;;;-1.22;41.30;99878.06;1745777;80;21653;-79
2024/01/12 11:12:35;;;;;;;17.90;7.42;;;;;;;-1.12;40.78;99882.66;1741587;81;21365;-80
2024/01/12 11:15:40;;;;;;;17.45;7.75;;;;;;;-1.08;39.97;99888.19;1706630;84;22602;-80
2024/01/12 11:18:45;;;;;;;27.20;12.85;;;;;;;-1.24;40.06;99881.35;1749964;81;21298;-81
2024/01/12 11:21:51;;;;;;;18.80;9.73;;;;;;;-1.13;39.75;99884.98;1727433;83;21713;-80
2024/01/12 11:24:58;;;;;;;22.27;10.13;;;;;;;-1.13;39.70;99879.61;1746777;80;21342;-80
2024/01/12 11:28:04;;;;;;;23.90;10.25;;;;;;;-1.10;40.04;99886.08;1749416;80;21286;-80
2024/01/12 11:31:09;;;;;;;11.85;5.40;;;;;;;-0.91;40.26;99881.55;1750018;80;21359;-78
2024/01/12 11:34:18;;;;;;;9.65;6.28;;;;;;;-0.73;39.91;99890.56;1746302;80;21339;-78
2024/01/12 11:37:24;;;;;;;9.33;4.30;;;;;;;-0.84;39.96;99894.91;1733051;80;21887;-78
2024/01/12 11:40:30;;;;;;;14.28;4.87;;;;;;;-0.52;39.16;99890.27;1778047;79;21379;-78
2024/01/12 11:43:38;;;;;;;13.68;5.60;;;;;;;-0.48;38.97;99901.16;1709536;80;21278;-79
2024/01/12 11:46:43;;;;;;;22.13;7.33;;;;;;;-0.44;38.11;99905.34;1736749;81;21349;-79
2024/01/12 11:49:50;;;;;;;23.07;7.72;;;;;;;-1.04;38.87;99899.53;1771818;80;21302;-79
2024/01/12 11:53:08;;;;;;;10.05;5.37;;;;;;;-1.21;38.95;99905.30;1756127;80;21337;-78
2024/01/12 11:56:13;;;;;;;8.98;5.37;;;;;;;-1.42;39.50;99921.95;1758468;81;21311;-79
2024/01/12 11:59:19;;;;;;;9.18;5.83;;;;;;;-1.43;39.54;99917.56;1714524;83;21603;-79
2024/01/12 12:02:25;;;;;;;32.65;16.67;;;;;;;-1.29;38.80;99916.57;1736408;80;21337;-80
2024/01/12 12:05:32;;;;;;;15.35;9.23;;;;;;;-1.57;39.32;99914.52;1738182;81;21535;-79
2024/01/12 12:08:38;;;;;;;11.15;6.08;;;;;;;-1.69;39.56;99914.06;1721161;83;21310;-79
2024/01/12 12:11:45;;;;;;;7.60;4.35;;;;;;;-1.83;39.73;99912.34;1710517;82;21322;-79
2024/01/12 12:15:12;;;;;;;6.17;4.33;;;;;;;-1.76;39.66;99921.30;1741936;82;21504;-78
2024/01/12 12:18:18;;;;;;;15.48;8.35;;;;;;;-1.80;39.91;99918.81;1719881;82;21321;-79
2024/01/12 12:21:24;;;;;;;37.30;15.18;;;;;;;-2.03;39.71;99927.59;1724102;82;21949;-79
2024/01/12 12:24:32;;;;;;;20.48;8.73;;;;;;;-2.00;39.70;99940.80;1750700;80;21292;-79
2024/01/12 12:27:41;;;;;;;27.82;13.22;;;;;;;-1.82;39.19;99941.35;1767392;79;21384;-79
2024/01/12 12:30:48;;;;;;;15.48;6.45;;;;;;;-1.82;38.97;99944.89;1723186;83;21333;-79
2024/01/12 12:33:56;;;;;;;7.87;4.90;;;;;;;-1.87;39.05;99943.02;1761556;79;21938;-79
2024/01/12 12:36:56;;;;;;;9.68;4.35;;;;;;;-2.03;39.40;99958.91;1739155;82;21318;-80
2024/01/12 12:39:49;;;;;;;46.90;19.32;;;;;;;-1.89;39.38;99950.77;1721846;82;21326;-80
2024/01/12 12:42:36;;;;;;;10.50;4.33;;;;;;;-1.72;39.42;99957.66;1756040;80;21286;-80
2024/01/12 12:45:30;;;;;;;8.45;4.47;;;;;;;-1.69;39.15;99960.99;1774803;80;21309;-80
2024/01/12 12:48:35;;;;;;;6.80;3.65;;;;;;;-1.50;38.49;99968.61;1736029;81;21313;-79
2024/01/12 12:51:42;;;;;;;27.95;12.65;;;;;;;-2.06;38.89;99970.71;1746521;82;21344;-79
2024/01/12 12:54:48;;;;;;;25.15;9.15;;;;;;;-2.23;39.66;99977.68;1738403;81;21707;-78
2024/01/12 12:57:53;;;;;;;11.80;7.70;;;;;;;-2.12;39.82;99987.19;1756492;80;21296;-78
2024/01/12 13:00:59;;;;;;;6.65;3.80;;;;;;;-2.12;39.94;99988.52;1772724;79;21320;-78
2024/01/12 13:04:07;;;;;;;7.62;3.87;;;;;;;-1.91;39.12;99992.92;1777181;79;21316;-79
2024/01/12 13:07:14;;;;;;;6.87;4.42;;;;;;;-2.13;39.38;99997.05;1761562;80;21310;-78
2024/01/12 13:10:21;;;;;;;11.63;5.37;;;;;;;-2.41;39.62;99995.35;1770411;80;21230;-79
2024/01/12 13:13:26;;;;;;;7.12;4.10;;;;;;;-2.47;39.83;99994.42;1775035;79;21648;-78
2024/01/12 13:16:33;;;;;;;7.20;4.28;;;;;;;-2.55;40.06;100002.09;1773934;80;21811;-79
2024/01/12 13:19:41;;;;;;;8.38;4.50;;;;;;;-2.36;40.10;100018.67;1779372;80;21301;-79
2024/01/12 13:22:48;;;;;;;7.70;3.50;;;;;;;-2.46;40.06;100006.85;1779601;80;21875;-79
2024/01/12 13:25:54;;;;;;;7.03;3.95;;;;;;;-2.02;39.65;100015.11;1755114;80;21876;-78
2024/01/12 13:29:02;;;;;;;10.32;3.90;;;;;;;-1.84;39.00;100013.83;1744189;82;21556;-78
2024/01/12 13:32:10;;;;;;;11.75;4.20;;;;;;;-1.81;38.71;100020.34;1743709;82;22389;-79
2024/01/12 13:35:17;;;;;;;10.75;6.00;;;;;;;-1.76;38.54;100031.23;1738139;82;21366;-79
2024/01/12 13:38:23;;;;;;;11.97;6.80;;;;;;;-1.86;38.50;100032.34;1733416;82;21338;-78
2024/01/12 13:41:30;;;;;;;18.30;7.05;;;;;;;-1.70;38.39;100034.34;1736021;82;21345;-78
2024/01/12 13:44:37;;;;;;;14.78;5.97;;;;;;;-1.90;38.41;100041.06;1743735;82;21215;-79
2024/01/12 13:47:43;;;;;;;21.73;8.03;;;;;;;-2.15;38.66;100048.56;1725481;82;21333;-79
2024/01/12 13:50:50;;;;;;;15.53;7.42;;;;;;;-2.22;38.88;100038.34;1736445;82;21329;-79
2024/01/12 13:53:56;;;;;;;23.55;8.83;;;;;;;-2.34;38.95;100046.73;1740046;82;21354;-79
2024/01/12 13:56:56;;;;;;;19.92;7.35;;;;;;;-2.29;38.91;100049.95;1734880;82;22031;-80
2024/01/12 14:00:06;;;;;;;18.55;7.30;;;;;;;-2.29;38.70;100057.14;1732478;82;21331;-79
2024/01/12 14:03:13;;;;;;;16.55;6.03;;;;;;;-2.28;38.50;100061.53;1719063;82;21336;-78
2024/01/12 14:06:20;;;;;;;19.50;7.42;;;;;;;-2.55;38.42;100062.36;1730181;82;21655;-78
2024/01/12 14:09:27;;;;;;;17.82;7.40;;;;;;;-2.80;38.91;100077.80;1748860;82;21322;-78
2024/01/12 14:12:32;;;;;;;32.40;14.05;;;;;;;-2.99;39.07;100081.27;1742126;82;21346;-77
2024/01/12 14:15:38;;;;;;;21.93;8.13;;;;;;;-2.82;38.89;100083.75;1749898;82;21875;-77
2024/01/12 14:18:45;;;;;;;29.92;11.40;;;;;;;-2.88;38.72;100082.77;1727240;82;21309;-77
2024/01/12 14:21:51;;;;;;;30.75;10.93;;;;;;;-3.04;38.84;100096.27;1731528;82;21243;-77
2024/01/12 14:24:57;;;;;;;7.25;4.08;;;;;;;-3.30;39.27;100101.01;1744027;82;21302;-76
2024/01/12 14:28:06;;;;;;;8.78;4.05;;;;;;;-3.31;39.26;100102.83;1721208;82;21324;-76
2024/01/12 14:31:13;;;;;;;;;;;;;;;-3.27;39.13;100107.04;1745400;82;21296;-76
2024/01/12 14:34:19;;;;;;;5.97;4.08;;;;;;;-3.33;39.02;100109.24;1738135;80;20288;-77
2024/01/12 14:37:25;;;;;;;10.93;4.55;;;;;;;-3.62;39.46;100122.55;1740015;82;21369;-77
2024/01/12 14:40:31;;;;;;;9.28;5.05;;;;;;;-3.38;39.33;100126.42;1723214;82;21964;-78
2024/01/12 14:43:38;;;;;;;10.43;5.47;;;;;;;-3.31;39.28;100119.36;1731570;81;21287;-77